sensor_id;sensor_type;location;lat;lon;timestamp;P1;durP1;ratioP1;P2;durP2;ratioP2
6215;SDS011;3141;49.234;9.326;2024-01-30T00:00:14;19.47;;;13.10;;
6215;SDS011;3141;49.234;9.326;2024-01-30T00:00:56;20.67;;;12.63;;
6215;SDS011;3141;49.234;9.326;2024-01-30T00:01:39;18.43;;;11.80;;
6215;SDS011;3141;49.234;9.326;2024-01-30T00:02:21;21.37;;;13.63;;
6215;SDS011;3141;49.234;9.326;2024-01-30T00:03:03;21.73;;;13.10;;
6215;SDS011;3141;49.234;9.326;2024-01-30T00:03:46;21.77;;;13.07;;
6215;SDS011;3141;49.234;9.326;2024-01-30T00:04:28;21.63;;;13.47;;
6215;SDS011;3141;49.234;9.326;2024-01-30T00:05:11;18.50;;;13.40;;
6215;SDS011;3141;49.234;9.326;2024-01-30T00:05:53;19.17;;;12.87;;
6215;SDS011;3141;49.234;9.326;2024-01-30T00:06:35;23.13;;;14.60;;
6215;SDS011;3141;49.234;9.326;2024-01-30T00:07:18;23.43;;;13.27;;
6215;SDS011;3141;49.234;9.326;2024-01-30T00:08:01;20.42;;;13.73;;
6215;SDS011;3141;49.234;9.326;2024-01-30T00:08:43;21.10;;;13.83;;
6215;SDS011;3141;49.234;9.326;2024-01-30T00:09:28;21.90;;;14.32;;
6215;SDS011;3141;49.234;9.326;2024-01-30T00:10:11;20.60;;;14.23;;
6215;SDS011;3141;49.234;9.326;2024-01-30T00:10:53;23.07;;;13.40;;
6215;SDS011;3141;49.234;9.326;2024-01-30T00:11:35;24.70;;;13.87;;
6215;SDS011;3141;49.234;9.326;2024-01-30T00:12:18;22.43;;;14.60;;
6215;SDS011;3141;49.234;9.326;2024-01-30T00:13:00;20.20;;;13.80;;
6215;SDS011;3141;49.234;9.326;2024-01-30T00:13:42;22.07;;;12.97;;
6215;SDS011;3141;49.234;9.326;2024-01-30T00:14:25;20.67;;;13.73;;
6215;SDS011;3141;49.234;9.326;2024-01-30T00:15:07;17.60;;;13.07;;
6215;SDS011;3141;49.234;9.326;2024-01-30T00:15:51;19.35;;;13.25;;
6215;SDS011;3141;49.234;9.326;2024-01-30T00:16:33;20.87;;;12.57;;
6215;SDS011;3141;49.234;9.326;2024-01-30T00:17:16;21.50;;;12.97;;
6215;SDS011;3141;49.234;9.326;2024-01-30T00:17:58;18.93;;;12.10;;
6215;SDS011;3141;49.234;9.326;2024-01-30T00:18:40;23.20;;;12.70;;
6215;SDS011;3141;49.234;9.326;2024-01-30T00:19:23;19.80;;;12.63;;
6215;SDS011;3141;49.234;9.326;2024-01-30T00:20:05;19.33;;;11.60;;
6215;SDS011;3141;49.234;9.326;2024-01-30T00:20:49;22.13;;;11.70;;
6215;SDS011;3141;49.234;9.326;2024-01-30T00:21:31;15.60;;;10.57;;
6215;SDS011;3141;49.234;9.326;2024-01-30T00:22:13;17.00;;;10.77;;
6215;SDS011;3141;49.234;9.326;2024-01-30T00:22:56;17.67;;;11.30;;
6215;SDS011;3141;49.234;9.326;2024-01-30T00:23:38;16.33;;;10.50;;
6215;SDS011;3141;49.234;9.326;2024-01-30T00:24:21;16.87;;;10.93;;
6215;SDS011;3141;49.234;9.326;2024-01-30T00:25:03;16.07;;;10.33;;
6215;SDS011;3141;49.234;9.326;2024-01-30T00:25:47;15.15;;;10.82;;
6215;SDS011;3141;49.234;9.326;2024-01-30T00:26:29;15.77;;;10.90;;
6215;SDS011;3141;49.234;9.326;2024-01-30T00:27:11;16.80;;;9.77;;
6215;SDS011;3141;49.234;9.326;2024-01-30T00:27:54;13.07;;;10.27;;
6215;SDS011;3141;49.234;9.326;2024-01-30T00:28:37;16.03;;;10.07;;
6215;SDS011;3141;49.234;9.326;2024-01-30T00:29:19;13.05;;;9.30;;
6215;SDS011;3141;49.234;9.326;2024-01-30T00:30:04;16.48;;;9.98;;
6215;SDS011;3141;49.234;9.326;2024-01-30T00:30:47;16.63;;;10.35;;
6215;SDS011;3141;49.234;9.326;2024-01-30T00:31:29;17.33;;;11.03;;
6215;SDS011;3141;49.234;9.326;2024-01-30T00:32:12;18.98;;;10.00;;
6215;SDS011;3141;49.234;9.326;2024-01-30T00:32:55;14.47;;;9.73;;
6215;SDS011;3141;49.234;9.326;2024-01-30T00:33:38;16.70;;;10.27;;
6215;SDS011;3141;49.234;9.326;2024-01-30T00:34:21;14.32;;;10.20;;
6215;SDS011;3141;49.234;9.326;2024-01-30T00:35:03;13.13;;;9.97;;
6215;SDS011;3141;49.234;9.326;2024-01-30T00:35:48;13.52;;;9.70;;
6215;SDS011;3141;49.234;9.326;2024-01-30T00:36:30;19.40;;;9.93;;
6215;SDS011;3141;49.234;9.326;2024-01-30T00:37:12;15.63;;;8.93;;
6215;SDS011;3141;49.234;9.326;2024-01-30T00:37:55;15.40;;;9.67;;
6215;SDS011;3141;49.234;9.326;2024-01-30T00:38:37;11.83;;;9.03;;
6215;SDS011;3141;49.234;9.326;2024-01-30T00:39:20;16.03;;;9.80;;
6215;SDS011;3141;49.234;9.326;2024-01-30T00:40:02;18.50;;;10.40;;
6215;SDS011;3141;49.234;9.326;2024-01-30T00:40:45;13.93;;;9.50;;
6215;SDS011;3141;49.234;9.326;2024-01-30T00:41:27;14.43;;;9.23;;
6215;SDS011;3141;49.234;9.326;2024-01-30T00:42:10;16.93;;;9.97;;
6215;SDS011;3141;49.234;9.326;2024-01-30T00:42:52;15.63;;;9.57;;
6215;SDS011;3141;49.234;9.326;2024-01-30T00:43:35;17.27;;;10.67;;
6215;SDS011;3141;49.234;9.326;2024-01-30T00:44:17;16.37;;;10.47;;
6215;SDS011;3141;49.234;9.326;2024-01-30T00:45:00;15.77;;;9.73;;
6215;SDS011;3141;49.234;9.326;2024-01-30T00:45:45;14.97;;;10.17;;
6215;SDS011;3141;49.234;9.326;2024-01-30T00:46:28;17.23;;;10.43;;
6215;SDS011;3141;49.234;9.326;2024-01-30T00:47:10;14.30;;;9.97;;
6215;SDS011;3141;49.234;9.326;2024-01-30T00:47:52;19.83;;;10.13;;
6215;SDS011;3141;49.234;9.326;2024-01-30T00:48:35;15.63;;;10.30;;
6215;SDS011;3141;49.234;9.326;2024-01-30T00:49:17;15.53;;;10.53;;
6215;SDS011;3141;49.234;9.326;2024-01-30T00:49:59;14.10;;;9.80;;
6215;SDS011;3141;49.234;9.326;2024-01-30T00:50:43;15.55;;;9.88;;
6215;SDS011;3141;49.234;9.326;2024-01-30T00:51:25;15.43;;;10.07;;
6215;SDS011;3141;49.234;9.326;2024-01-30T00:52:07;12.83;;;9.63;;
6215;SDS011;3141;49.234;9.326;2024-01-30T00:52:49;12.87;;;9.90;;
6215;SDS011;3141;49.234;9.326;2024-01-30T00:53:32;14.00;;;9.63;;
6215;SDS011;3141;49.234;9.326;2024-01-30T00:54:15;17.15;;;10.20;;
6215;SDS011;3141;49.234;9.326;2024-01-30T00:54:58;13.80;;;9.57;;
6215;SDS011;3141;49.234;9.326;2024-01-30T00:55:41;12.48;;;9.35;;
6215;SDS011;3141;49.234;9.326;2024-01-30T00:56:23;13.13;;;9.60;;
6215;SDS011;3141;49.234;9.326;2024-01-30T00:57:06;15.40;;;9.87;;
6215;SDS011;3141;49.234;9.326;2024-01-30T00:57:49;14.90;;;9.83;;
6215;SDS011;3141;49.234;9.326;2024-01-30T00:58:31;13.13;;;9.13;;
6215;SDS011;3141;49.234;9.326;2024-01-30T00:59:13;13.37;;;9.73;;
6215;SDS011;3141;49.234;9.326;2024-01-30T00:59:57;15.53;;;9.77;;
6215;SDS011;3141;49.234;9.326;2024-01-30T01:00:39;12.63;;;9.43;;
6215;SDS011;3141;49.234;9.326;2024-01-30T01:01:22;14.07;;;10.40;;
6215;SDS011;3141;49.234;9.326;2024-01-30T01:02:04;14.67;;;10.43;;
6215;SDS011;3141;49.234;9.326;2024-01-30T01:02:46;17.27;;;9.90;;
6215;SDS011;3141;49.234;9.326;2024-01-30T01:03:28;12.33;;;9.50;;
6215;SDS011;3141;49.234;9.326;2024-01-30T01:04:11;15.07;;;9.57;;
6215;SDS011;3141;49.234;9.326;2024-01-30T01:04:53;12.23;;;8.80;;
6215;SDS011;3141;49.234;9.326;2024-01-30T01:05:36;15.87;;;9.53;;
6215;SDS011;3141;49.234;9.326;2024-01-30T01:06:18;16.43;;;9.97;;
6215;SDS011;3141;49.234;9.326;2024-01-30T01:07:01;15.93;;;9.20;;
6215;SDS011;3141;49.234;9.326;2024-01-30T01:07:43;15.68;;;10.00;;
6215;SDS011;3141;49.234;9.326;2024-01-30T01:08:27;12.60;;;9.98;;
6215;SDS011;3141;49.234;9.326;2024-01-30T01:09:12;15.27;;;9.77;;
6215;SDS011;3141;49.234;9.326;2024-01-30T01:09:55;18.00;;;9.55;;
6215;SDS011;3141;49.234;9.326;2024-01-30T01:10:37;11.53;;;9.20;;
6215;SDS011;3141;49.234;9.326;2024-01-30T01:11:19;14.10;;;9.43;;
6215;SDS011;3141;49.234;9.326;2024-01-30T01:12:02;14.97;;;9.63;;
6215;SDS011;3141;49.234;9.326;2024-01-30T01:12:45;15.15;;;9.73;;
6215;SDS011;3141;49.234;9.326;2024-01-30T01:13:27;15.30;;;9.13;;
6215;SDS011;3141;49.234;9.326;2024-01-30T01:14:10;16.13;;;10.10;;
6215;SDS011;3141;49.234;9.326;2024-01-30T01:14:52;15.47;;;9.43;;
6215;SDS011;3141;49.234;9.326;2024-01-30T01:15:35;13.57;;;9.00;;
6215;SDS011;3141;49.234;9.326;2024-01-30T01:16:17;15.23;;;10.00;;
6215;SDS011;3141;49.234;9.326;2024-01-30T01:16:59;15.63;;;9.60;;
6215;SDS011;3141;49.234;9.326;2024-01-30T01:17:42;15.20;;;9.43;;
6215;SDS011;3141;49.234;9.326;2024-01-30T01:18:24;18.03;;;9.57;;
6215;SDS011;3141;49.234;9.326;2024-01-30T01:19:06;14.27;;;9.50;;
6215;SDS011;3141;49.234;9.326;2024-01-30T01:19:49;16.23;;;10.03;;
6215;SDS011;3141;49.234;9.326;2024-01-30T01:20:31;21.37;;;10.50;;
6215;SDS011;3141;49.234;9.326;2024-01-30T01:21:13;15.40;;;9.97;;
6215;SDS011;3141;49.234;9.326;2024-01-30T01:21:56;15.47;;;9.77;;
6215;SDS011;3141;49.234;9.326;2024-01-30T01:22:39;14.27;;;9.83;;
6215;SDS011;3141;49.234;9.326;2024-01-30T01:23:22;13.07;;;9.43;;
6215;SDS011;3141;49.234;9.326;2024-01-30T01:24:04;16.03;;;10.27;;
6215;SDS011;3141;49.234;9.326;2024-01-30T01:24:47;12.27;;;9.57;;
6215;SDS011;3141;49.234;9.326;2024-01-30T01:25:29;15.03;;;9.47;;
6215;SDS011;3141;49.234;9.326;2024-01-30T01:26:11;14.53;;;9.63;;
6215;SDS011;3141;49.234;9.326;2024-01-30T01:26:53;14.47;;;10.10;;
6215;SDS011;3141;49.234;9.326;2024-01-30T01:27:36;18.20;;;10.87;;
6215;SDS011;3141;49.234;9.326;2024-01-30T01:28:22;17.83;;;10.02;;
6215;SDS011;3141;49.234;9.326;2024-01-30T01:29:06;14.40;;;9.50;;
6215;SDS011;3141;49.234;9.326;2024-01-30T01:29:53;14.25;;;9.45;;
6215;SDS011;3141;49.234;9.326;2024-01-30T01:30:35;17.17;;;10.17;;
6215;SDS011;3141;49.234;9.326;2024-01-30T01:31:18;14.07;;;8.77;;
6215;SDS011;3141;49.234;9.326;2024-01-30T01:32:00;17.03;;;9.10;;
6215;SDS011;3141;49.234;9.326;2024-01-30T01:32:42;14.50;;;10.27;;
6215;SDS011;3141;49.234;9.326;2024-01-30T01:33:31;12.52;;;9.02;;
6215;SDS011;3141;49.234;9.326;2024-01-30T01:34:15;16.58;;;9.73;;
6215;SDS011;3141;49.234;9.326;2024-01-30T01:34:57;21.50;;;9.83;;
6215;SDS011;3141;49.234;9.326;2024-01-30T01:35:40;13.43;;;9.33;;
6215;SDS011;3141;49.234;9.326;2024-01-30T01:36:22;19.77;;;9.90;;
6215;SDS011;3141;49.234;9.326;2024-01-30T01:37:05;16.65;;;9.50;;
6215;SDS011;3141;49.234;9.326;2024-01-30T01:37:49;13.38;;;8.95;;
6215;SDS011;3141;49.234;9.326;2024-01-30T01:38:36;20.48;;;9.85;;
6215;SDS011;3141;49.234;9.326;2024-01-30T01:39:19;15.40;;;10.03;;
6215;SDS011;3141;49.234;9.326;2024-01-30T01:40:01;14.03;;;9.37;;
6215;SDS011;3141;49.234;9.326;2024-01-30T01:40:43;13.63;;;8.80;;
6215;SDS011;3141;49.234;9.326;2024-01-30T01:41:29;18.60;;;10.40;;
6215;SDS011;3141;49.234;9.326;2024-01-30T01:42:12;15.02;;;9.85;;
6215;SDS011;3141;49.234;9.326;2024-01-30T01:42:55;14.57;;;9.77;;
6215;SDS011;3141;49.234;9.326;2024-01-30T01:43:37;15.83;;;10.20;;
6215;SDS011;3141;49.234;9.326;2024-01-30T01:44:21;15.02;;;9.93;;
6215;SDS011;3141;49.234;9.326;2024-01-30T01:45:03;11.60;;;8.77;;
6215;SDS011;3141;49.234;9.326;2024-01-30T01:45:46;16.90;;;10.03;;
6215;SDS011;3141;49.234;9.326;2024-01-30T01:46:30;14.27;;;9.57;;
6215;SDS011;3141;49.234;9.326;2024-01-30T01:47:15;14.25;;;9.18;;
6215;SDS011;3141;49.234;9.326;2024-01-30T01:47:57;15.37;;;9.77;;
6215;SDS011;3141;49.234;9.326;2024-01-30T01:48:39;16.23;;;9.53;;
6215;SDS011;3141;49.234;9.326;2024-01-30T01:49:23;17.45;;;9.88;;
6215;SDS011;3141;49.234;9.326;2024-01-30T01:50:07;17.20;;;9.80;;
6215;SDS011;3141;49.234;9.326;2024-01-30T01:50:50;16.83;;;10.33;;
6215;SDS011;3141;49.234;9.326;2024-01-30T01:51:34;13.82;;;9.05;;
6215;SDS011;3141;49.234;9.326;2024-01-30T01:52:17;17.08;;;10.90;;
6215;SDS011;3141;49.234;9.326;2024-01-30T01:53:00;14.93;;;10.00;;
6215;SDS011;3141;49.234;9.326;2024-01-30T01:53:44;15.93;;;9.30;;
6215;SDS011;3141;49.234;9.326;2024-01-30T01:54:26;13.20;;;8.67;;
6215;SDS011;3141;49.234;9.326;2024-01-30T01:55:11;14.07;;;9.80;;
6215;SDS011;3141;49.234;9.326;2024-01-30T01:55:55;14.32;;;8.70;;
6215;SDS011;3141;49.234;9.326;2024-01-30T01:56:38;16.27;;;9.93;;
6215;SDS011;3141;49.234;9.326;2024-01-30T01:57:21;12.03;;;9.60;;
6215;SDS011;3141;49.234;9.326;2024-01-30T01:58:03;15.77;;;9.70;;
6215;SDS011;3141;49.234;9.326;2024-01-30T01:58:46;15.85;;;10.10;;
6215;SDS011;3141;49.234;9.326;2024-01-30T01:59:30;14.50;;;10.05;;
6215;SDS011;3141;49.234;9.326;2024-01-30T02:00:14;16.55;;;10.05;;
6215;SDS011;3141;49.234;9.326;2024-01-30T02:00:57;15.20;;;9.75;;
6215;SDS011;3141;49.234;9.326;2024-01-30T02:01:41;18.98;;;9.80;;
6215;SDS011;3141;49.234;9.326;2024-01-30T02:02:23;14.93;;;10.17;;
6215;SDS011;3141;49.234;9.326;2024-01-30T02:03:09;18.30;;;10.02;;
6215;SDS011;3141;49.234;9.326;2024-01-30T02:03:52;18.90;;;11.20;;
6215;SDS011;3141;49.234;9.326;2024-01-30T02:04:35;13.50;;;9.63;;
6215;SDS011;3141;49.234;9.326;2024-01-30T02:05:18;16.30;;;10.43;;
6215;SDS011;3141;49.234;9.326;2024-01-30T02:06:00;15.80;;;9.87;;
6215;SDS011;3141;49.234;9.326;2024-01-30T02:06:44;14.68;;;10.07;;
6215;SDS011;3141;49.234;9.326;2024-01-30T02:07:30;14.20;;;9.90;;
6215;SDS011;3141;49.234;9.326;2024-01-30T02:08:12;16.58;;;9.88;;
6215;SDS011;3141;49.234;9.326;2024-01-30T02:08:54;15.90;;;10.27;;
6215;SDS011;3141;49.234;9.326;2024-01-30T02:09:37;13.67;;;9.87;;
6215;SDS011;3141;49.234;9.326;2024-01-30T02:10:19;19.33;;;10.30;;
6215;SDS011;3141;49.234;9.326;2024-01-30T02:11:01;13.47;;;9.67;;
6215;SDS011;3141;49.234;9.326;2024-01-30T02:11:44;17.60;;;11.43;;
6215;SDS011;3141;49.234;9.326;2024-01-30T02:12:26;15.17;;;10.47;;
6215;SDS011;3141;49.234;9.326;2024-01-30T02:13:09;15.67;;;9.97;;
6215;SDS011;3141;49.234;9.326;2024-01-30T02:13:52;18.87;;;10.47;;
6215;SDS011;3141;49.234;9.326;2024-01-30T02:14:43;11.52;;;9.63;;
6215;SDS011;3141;49.234;9.326;2024-01-30T02:15:27;17.75;;;11.00;;
6215;SDS011;3141;49.234;9.326;2024-01-30T02:16:09;17.63;;;9.80;;
6215;SDS011;3141;49.234;9.326;2024-01-30T02:16:52;17.95;;;9.88;;
6215;SDS011;3141;49.234;9.326;2024-01-30T02:17:34;17.27;;;10.43;;
6215;SDS011;3141;49.234;9.326;2024-01-30T02:18:17;15.57;;;10.60;;
6215;SDS011;3141;49.234;9.326;2024-01-30T02:18:59;13.97;;;10.77;;
6215;SDS011;3141;49.234;9.326;2024-01-30T02:19:41;14.33;;;10.43;;
6215;SDS011;3141;49.234;9.326;2024-01-30T02:20:24;15.03;;;10.50;;
6215;SDS011;3141;49.234;9.326;2024-01-30T02:21:07;14.90;;;10.68;;
6215;SDS011;3141;49.234;9.326;2024-01-30T02:21:51;16.10;;;11.80;;
6215;SDS011;3141;49.234;9.326;2024-01-30T02:22:34;18.05;;;11.10;;
6215;SDS011;3141;49.234;9.326;2024-01-30T02:23:18;16.85;;;10.43;;
6215;SDS011;3141;49.234;9.326;2024-01-30T02:24:01;16.00;;;9.98;;
6215;SDS011;3141;49.234;9.326;2024-01-30T02:24:45;12.73;;;9.68;;
6215;SDS011;3141;49.234;9.326;2024-01-30T02:25:34;13.83;;;10.37;;
6215;SDS011;3141;49.234;9.326;2024-01-30T02:26:19;15.73;;;9.65;;
6215;SDS011;3141;49.234;9.326;2024-01-30T02:27:01;16.47;;;10.47;;
6215;SDS011;3141;49.234;9.326;2024-01-30T02:27:43;15.10;;;10.20;;
6215;SDS011;3141;49.234;9.326;2024-01-30T02:28:26;14.93;;;10.63;;
6215;SDS011;3141;49.234;9.326;2024-01-30T02:29:09;15.38;;;10.63;;
6215;SDS011;3141;49.234;9.326;2024-01-30T02:29:52;18.47;;;10.03;;
6215;SDS011;3141;49.234;9.326;2024-01-30T02:30:34;15.77;;;11.00;;
6215;SDS011;3141;49.234;9.326;2024-01-30T02:31:16;17.97;;;10.97;;
6215;SDS011;3141;49.234;9.326;2024-01-30T02:31:58;17.37;;;10.60;;
6215;SDS011;3141;49.234;9.326;2024-01-30T02:32:41;16.10;;;10.27;;
6215;SDS011;3141;49.234;9.326;2024-01-30T02:33:23;17.17;;;10.63;;
6215;SDS011;3141;49.234;9.326;2024-01-30T02:34:05;17.30;;;10.97;;
6215;SDS011;3141;49.234;9.326;2024-01-30T02:34:48;15.93;;;11.17;;
6215;SDS011;3141;49.234;9.326;2024-01-30T02:35:30;15.87;;;10.33;;
6215;SDS011;3141;49.234;9.326;2024-01-30T02:36:12;14.33;;;10.33;;
6215;SDS011;3141;49.234;9.326;2024-01-30T02:36:55;14.63;;;10.10;;
6215;SDS011;3141;49.234;9.326;2024-01-30T02:37:37;18.10;;;9.70;;
6215;SDS011;3141;49.234;9.326;2024-01-30T02:38:19;17.80;;;9.33;;
6215;SDS011;3141;49.234;9.326;2024-01-30T02:39:02;19.73;;;10.97;;
6215;SDS011;3141;49.234;9.326;2024-01-30T02:39:46;16.60;;;10.73;;
6215;SDS011;3141;49.234;9.326;2024-01-30T02:40:29;17.20;;;10.07;;
6215;SDS011;3141;49.234;9.326;2024-01-30T02:41:11;12.27;;;9.63;;
6215;SDS011;3141;49.234;9.326;2024-01-30T02:41:53;13.67;;;9.90;;
6215;SDS011;3141;49.234;9.326;2024-01-30T02:42:36;14.00;;;10.70;;
6215;SDS011;3141;49.234;9.326;2024-01-30T02:43:19;16.03;;;9.50;;
6215;SDS011;3141;49.234;9.326;2024-01-30T02:44:02;13.00;;;9.23;;
6215;SDS011;3141;49.234;9.326;2024-01-30T02:44:45;19.60;;;9.73;;
6215;SDS011;3141;49.234;9.326;2024-01-30T02:45:27;15.80;;;10.07;;
6215;SDS011;3141;49.234;9.326;2024-01-30T02:46:10;15.73;;;10.03;;
6215;SDS011;3141;49.234;9.326;2024-01-30T02:46:53;15.15;;;9.90;;
6215;SDS011;3141;49.234;9.326;2024-01-30T02:47:36;12.80;;;9.10;;
6215;SDS011;3141;49.234;9.326;2024-01-30T02:48:18;15.70;;;10.20;;
6215;SDS011;3141;49.234;9.326;2024-01-30T02:49:00;15.03;;;10.23;;
6215;SDS011;3141;49.234;9.326;2024-01-30T02:49:43;15.02;;;10.15;;
6215;SDS011;3141;49.234;9.326;2024-01-30T02:50:26;18.77;;;10.47;;
6215;SDS011;3141;49.234;9.326;2024-01-30T02:51:08;13.83;;;9.73;;
6215;SDS011;3141;49.234;9.326;2024-01-30T02:51:51;16.63;;;10.03;;
6215;SDS011;3141;49.234;9.326;2024-01-30T02:52:33;13.00;;;9.77;;
6215;SDS011;3141;49.234;9.326;2024-01-30T02:53:16;17.90;;;9.03;;
6215;SDS011;3141;49.234;9.326;2024-01-30T02:53:58;17.30;;;10.77;;
6215;SDS011;3141;49.234;9.326;2024-01-30T02:54:41;15.77;;;9.90;;
6215;SDS011;3141;49.234;9.326;2024-01-30T02:55:25;17.35;;;10.93;;
6215;SDS011;3141;49.234;9.326;2024-01-30T02:56:07;14.43;;;9.30;;
6215;SDS011;3141;49.234;9.326;2024-01-30T02:56:51;15.00;;;10.27;;
6215;SDS011;3141;49.234;9.326;2024-01-30T02:57:34;20.33;;;11.33;;
6215;SDS011;3141;49.234;9.326;2024-01-30T02:58:16;17.47;;;10.43;;
6215;SDS011;3141;49.234;9.326;2024-01-30T02:58:58;14.97;;;10.60;;
6215;SDS011;3141;49.234;9.326;2024-01-30T02:59:41;17.97;;;11.10;;
6215;SDS011;3141;49.234;9.326;2024-01-30T03:00:24;14.60;;;10.60;;
6215;SDS011;3141;49.234;9.326;2024-01-30T03:01:09;17.42;;;10.02;;
6215;SDS011;3141;49.234;9.326;2024-01-30T03:01:51;18.17;;;10.43;;
6215;SDS011;3141;49.234;9.326;2024-01-30T03:02:34;16.77;;;11.60;;
6215;SDS011;3141;49.234;9.326;2024-01-30T03:03:16;14.13;;;10.27;;
6215;SDS011;3141;49.234;9.326;2024-01-30T03:03:58;14.50;;;10.60;;
6215;SDS011;3141;49.234;9.326;2024-01-30T03:04:41;14.70;;;10.03;;
6215;SDS011;3141;49.234;9.326;2024-01-30T03:05:24;17.23;;;11.65;;
6215;SDS011;3141;49.234;9.326;2024-01-30T03:06:07;15.18;;;10.52;;
6215;SDS011;3141;49.234;9.326;2024-01-30T03:06:50;17.37;;;10.37;;
6215;SDS011;3141;49.234;9.326;2024-01-30T03:07:32;18.77;;;10.47;;
6215;SDS011;3141;49.234;9.326;2024-01-30T03:08:15;17.10;;;10.57;;
6215;SDS011;3141;49.234;9.326;2024-01-30T03:08:57;14.73;;;11.00;;
6215;SDS011;3141;49.234;9.326;2024-01-30T03:09:41;17.77;;;12.43;;
6215;SDS011;3141;49.234;9.326;2024-01-30T03:10:25;18.73;;;11.38;;
6215;SDS011;3141;49.234;9.326;2024-01-30T03:11:10;18.13;;;10.68;;
6215;SDS011;3141;49.234;9.326;2024-01-30T03:11:52;17.83;;;10.67;;
6215;SDS011;3141;49.234;9.326;2024-01-30T03:12:34;18.07;;;10.70;;
6215;SDS011;3141;49.234;9.326;2024-01-30T03:13:17;15.47;;;10.17;;
6215;SDS011;3141;49.234;9.326;2024-01-30T03:13:59;16.40;;;10.80;;
6215;SDS011;3141;49.234;9.326;2024-01-30T03:14:41;16.63;;;10.80;;
6215;SDS011;3141;49.234;9.326;2024-01-30T03:15:24;16.67;;;10.50;;
6215;SDS011;3141;49.234;9.326;2024-01-30T03:16:06;15.83;;;10.50;;
6215;SDS011;3141;49.234;9.326;2024-01-30T03:16:50;17.67;;;10.65;;
6215;SDS011;3141;49.234;9.326;2024-01-30T03:17:32;16.60;;;10.53;;
6215;SDS011;3141;49.234;9.326;2024-01-30T03:18:15;19.67;;;11.10;;
6215;SDS011;3141;49.234;9.326;2024-01-30T03:18:57;14.00;;;10.63;;
6215;SDS011;3141;49.234;9.326;2024-01-30T03:19:39;12.97;;;10.40;;
6215;SDS011;3141;49.234;9.326;2024-01-30T03:20:22;13.53;;;10.40;;
6215;SDS011;3141;49.234;9.326;2024-01-30T03:21:05;16.03;;;10.23;;
6215;SDS011;3141;49.234;9.326;2024-01-30T03:21:47;16.80;;;10.50;;
6215;SDS011;3141;49.234;9.326;2024-01-30T03:22:29;14.27;;;10.17;;
6215;SDS011;3141;49.234;9.326;2024-01-30T03:23:11;19.73;;;9.90;;
6215;SDS011;3141;49.234;9.326;2024-01-30T03:23:54;14.00;;;9.87;;
6215;SDS011;3141;49.234;9.326;2024-01-30T03:24:36;13.67;;;10.43;;
6215;SDS011;3141;49.234;9.326;2024-01-30T03:25:18;16.13;;;10.67;;
6215;SDS011;3141;49.234;9.326;2024-01-30T03:26:01;16.27;;;10.10;;
6215;SDS011;3141;49.234;9.326;2024-01-30T03:26:43;19.73;;;11.00;;
6215;SDS011;3141;49.234;9.326;2024-01-30T03:27:25;15.17;;;10.60;;
6215;SDS011;3141;49.234;9.326;2024-01-30T03:28:08;16.70;;;9.97;;
6215;SDS011;3141;49.234;9.326;2024-01-30T03:28:50;17.67;;;10.30;;
6215;SDS011;3141;49.234;9.326;2024-01-30T03:29:32;12.53;;;10.10;;
6215;SDS011;3141;49.234;9.326;2024-01-30T03:30:15;16.50;;;10.50;;
6215;SDS011;3141;49.234;9.326;2024-01-30T03:30:57;13.63;;;9.87;;
6215;SDS011;3141;49.234;9.326;2024-01-30T03:31:40;15.97;;;10.37;;
6215;SDS011;3141;49.234;9.326;2024-01-30T03:32:22;14.57;;;10.03;;
6215;SDS011;3141;49.234;9.326;2024-01-30T03:33:04;19.60;;;11.33;;
6215;SDS011;3141;49.234;9.326;2024-01-30T03:33:46;18.50;;;10.60;;
6215;SDS011;3141;49.234;9.326;2024-01-30T03:34:29;16.37;;;11.30;;
6215;SDS011;3141;49.234;9.326;2024-01-30T03:35:11;15.83;;;10.63;;
6215;SDS011;3141;49.234;9.326;2024-01-30T03:35:53;16.03;;;10.47;;
6215;SDS011;3141;49.234;9.326;2024-01-30T03:36:36;16.17;;;10.50;;
6215;SDS011;3141;49.234;9.326;2024-01-30T03:37:18;20.87;;;11.97;;
6215;SDS011;3141;49.234;9.326;2024-01-30T03:38:01;17.13;;;10.77;;
6215;SDS011;3141;49.234;9.326;2024-01-30T03:38:43;16.83;;;11.30;;
6215;SDS011;3141;49.234;9.326;2024-01-30T03:39:25;15.93;;;11.10;;
6215;SDS011;3141;49.234;9.326;2024-01-30T03:40:08;16.33;;;10.17;;
6215;SDS011;3141;49.234;9.326;2024-01-30T03:40:50;21.10;;;11.77;;
6215;SDS011;3141;49.234;9.326;2024-01-30T03:41:33;15.73;;;9.87;;
6215;SDS011;3141;49.234;9.326;2024-01-30T03:42:15;17.53;;;10.00;;
6215;SDS011;3141;49.234;9.326;2024-01-30T03:42:57;14.67;;;10.63;;
6215;SDS011;3141;49.234;9.326;2024-01-30T03:43:40;14.43;;;10.67;;
6215;SDS011;3141;49.234;9.326;2024-01-30T03:44:22;18.63;;;10.83;;
6215;SDS011;3141;49.234;9.326;2024-01-30T03:45:05;14.07;;;10.13;;
6215;SDS011;3141;49.234;9.326;2024-01-30T03:45:47;14.90;;;11.13;;
6215;SDS011;3141;49.234;9.326;2024-01-30T03:46:30;15.10;;;10.73;;
6215;SDS011;3141;49.234;9.326;2024-01-30T03:47:12;16.23;;;10.37;;
6215;SDS011;3141;49.234;9.326;2024-01-30T03:47:54;20.83;;;11.30;;
6215;SDS011;3141;49.234;9.326;2024-01-30T03:48:37;19.13;;;11.60;;
6215;SDS011;3141;49.234;9.326;2024-01-30T03:49:19;20.07;;;11.73;;
6215;SDS011;3141;49.234;9.326;2024-01-30T03:50:01;16.63;;;10.60;;
6215;SDS011;3141;49.234;9.326;2024-01-30T03:50:43;17.60;;;10.43;;
6215;SDS011;3141;49.234;9.326;2024-01-30T03:51:26;18.70;;;10.93;;
6215;SDS011;3141;49.234;9.326;2024-01-30T03:52:08;17.03;;;10.43;;
6215;SDS011;3141;49.234;9.326;2024-01-30T03:52:51;15.87;;;10.63;;
6215;SDS011;3141;49.234;9.326;2024-01-30T03:53:33;17.07;;;11.00;;
6215;SDS011;3141;49.234;9.326;2024-01-30T03:54:16;20.63;;;11.23;;
6215;SDS011;3141;49.234;9.326;2024-01-30T03:54:58;18.75;;;10.45;;
6215;SDS011;3141;49.234;9.326;2024-01-30T03:55:41;15.02;;;11.25;;
6215;SDS011;3141;49.234;9.326;2024-01-30T03:56:24;15.03;;;10.73;;
6215;SDS011;3141;49.234;9.326;2024-01-30T03:57:07;20.58;;;11.65;;
6215;SDS011;3141;49.234;9.326;2024-01-30T03:57:50;18.40;;;11.23;;
6215;SDS011;3141;49.234;9.326;2024-01-30T03:58:32;14.70;;;10.67;;
6215;SDS011;3141;49.234;9.326;2024-01-30T03:59:14;18.03;;;10.77;;
6215;SDS011;3141;49.234;9.326;2024-01-30T03:59:57;18.27;;;11.20;;
6215;SDS011;3141;49.234;9.326;2024-01-30T04:00:39;18.93;;;11.50;;
6215;SDS011;3141;49.234;9.326;2024-01-30T04:01:23;21.85;;;11.07;;
6215;SDS011;3141;49.234;9.326;2024-01-30T04:02:05;16.13;;;11.17;;
6215;SDS011;3141;49.234;9.326;2024-01-30T04:02:47;19.63;;;11.40;;
6215;SDS011;3141;49.234;9.326;2024-01-30T04:03:30;17.67;;;11.70;;
6215;SDS011;3141;49.234;9.326;2024-01-30T04:04:12;17.23;;;11.63;;
6215;SDS011;3141;49.234;9.326;2024-01-30T04:04:54;13.77;;;10.37;;
6215;SDS011;3141;49.234;9.326;2024-01-30T04:05:37;17.73;;;10.60;;
6215;SDS011;3141;49.234;9.326;2024-01-30T04:06:19;16.63;;;10.20;;
6215;SDS011;3141;49.234;9.326;2024-01-30T04:07:01;16.33;;;10.53;;
6215;SDS011;3141;49.234;9.326;2024-01-30T04:07:44;17.03;;;11.60;;
6215;SDS011;3141;49.234;9.326;2024-01-30T04:08:26;19.50;;;10.80;;
6215;SDS011;3141;49.234;9.326;2024-01-30T04:09:08;16.80;;;11.17;;
6215;SDS011;3141;49.234;9.326;2024-01-30T04:09:51;17.67;;;11.27;;
6215;SDS011;3141;49.234;9.326;2024-01-30T04:10:33;15.77;;;11.43;;
6215;SDS011;3141;49.234;9.326;2024-01-30T04:11:18;17.07;;;11.17;;
6215;SDS011;3141;49.234;9.326;2024-01-30T04:12:01;16.13;;;11.02;;
6215;SDS011;3141;49.234;9.326;2024-01-30T04:12:44;14.73;;;10.65;;
6215;SDS011;3141;49.234;9.326;2024-01-30T04:13:27;17.83;;;10.80;;
6215;SDS011;3141;49.234;9.326;2024-01-30T04:14:09;13.67;;;9.40;;
6215;SDS011;3141;49.234;9.326;2024-01-30T04:14:52;15.47;;;10.63;;
6215;SDS011;3141;49.234;9.326;2024-01-30T04:15:35;17.87;;;10.83;;
6215;SDS011;3141;49.234;9.326;2024-01-30T04:16:20;16.17;;;10.57;;
6215;SDS011;3141;49.234;9.326;2024-01-30T04:17:04;17.98;;;10.30;;
6215;SDS011;3141;49.234;9.326;2024-01-30T04:17:46;14.37;;;9.80;;
6215;SDS011;3141;49.234;9.326;2024-01-30T04:18:28;15.77;;;10.20;;
6215;SDS011;3141;49.234;9.326;2024-01-30T04:19:11;15.50;;;10.52;;